Skip Navigation LinksHome page > Weather > Current weather Skip Navigation Links

Current Weather

Alert, Nunavut

For information only: do not use for flight planning or navigation.
Latest weather
Observation time Monday, April 20, 2015 10:00 PM EDT
Local time Monday, April 20, 2015 10:53 PM EDT
Flight conditions Visual Meteorological Conditions
Winds
Wind direction Southwest (230°)
Wind speed 13 mph
Visibility 15 mi.
Sky condition
Ceiling unlimited
Cloud layer few clouds 16,000 ft.
Cloud layer scattered clouds 20,000 ft.
Temperature -4°F
Dewpoint -11°F
Altimeter 29.95 in.Hg
Derived measurements
Relative humidity 70%
Wind chill -23°F
Density altitude -4496 ft.
Sea-level pressure 29.96 in.Hg
METAR CYLT 210200Z 23011KT 15SM FEW160 SCT200 M20/M24 A2995 RMK AC1CI2 AC TR SLP146

Settings

Location code

InnerDrive.Weather 4.0.5567.0 Release CLR 4.0.30319.34014
Copyright ©2015 Inner Drive Technology. All rights reserved. Portions Copyright ©1986-2015 David Braverman.

Find weather

Site navigation


Skip Navigation Links

Place info

Page info

PayPal - The safer, easier way to pay online!

Return home.

Copyright ©2015 Inner Drive Technology. Purveyors of fine, hand-crafted computer software. Page printed 2015-04-21T02:53:46 UTC.